createdAt,value
2023-01-06T00:01:35.221Z,100594.22
2023-01-06T00:04:03.313Z,100594.50
2023-01-06T00:06:31.787Z,100593.41
2023-01-06T00:09:02.091Z,100594.75
2023-01-06T00:11:32.153Z,100602.91
2023-01-06T00:14:00.504Z,100583.56
2023-01-06T00:16:28.144Z,100580.88
2023-01-06T00:18:57.272Z,100577.84
2023-01-06T00:21:25.312Z,100569.59
2023-01-06T00:23:53.243Z,100567.84
2023-01-06T00:26:20.945Z,100573.84
2023-01-06T00:28:53.837Z,100567.28
2023-01-06T00:31:21.515Z,100570.88
2023-01-06T00:33:49.158Z,100567.13
2023-01-06T00:36:16.878Z,100571.16
2023-01-06T00:38:44.777Z,100563.94
2023-01-06T00:41:28.243Z,100558.97
2023-01-06T00:43:58.168Z,100548.69
2023-01-06T00:46:28.796Z,100547.56
2023-01-06T00:49:04.900Z,100551.91
2023-01-06T00:51:33.612Z,100539.53
2023-01-06T00:54:02.177Z,100536.66
2023-01-06T00:56:29.758Z,100545.25
2023-01-06T00:59:03.237Z,100543.31
2023-01-06T01:01:30.961Z,100548.22
2023-01-06T01:03:58.615Z,100545.34
2023-01-06T01:06:26.710Z,100547.84
2023-01-06T01:08:55.480Z,100549.69
2023-01-06T01:11:41.066Z,100543.03
2023-01-06T01:14:11.058Z,100544.91
2023-01-06T01:16:38.907Z,100549.63
2023-01-06T01:19:06.712Z,100553.22
2023-01-06T01:21:34.935Z,100553.22
2023-01-06T01:24:02.584Z,100550.00
2023-01-06T01:26:30.250Z,100554.63
2023-01-06T01:28:58.008Z,100561.19
2023-01-06T01:31:28.039Z,100548.88
2023-01-06T01:33:55.706Z,100561.66
2023-01-06T01:36:23.241Z,100556.44
2023-01-06T01:38:50.819Z,100555.53
2023-01-06T01:41:22.743Z,100568.56
2023-01-06T01:43:52.471Z,100559.69
2023-01-06T01:46:26.934Z,100552.47
2023-01-06T01:48:59.046Z,100547.47
2023-01-06T01:51:31.970Z,100553.69
2023-01-06T01:54:05.889Z,100559.13
2023-01-06T01:56:38.659Z,100554.69
2023-01-06T01:59:11.804Z,100552.47
2023-01-06T02:01:40.017Z,100552.94
2023-01-06T02:04:10.285Z,100548.47
2023-01-06T02:06:38.903Z,100547.31
2023-01-06T02:09:12.024Z,100543.31
2023-01-06T02:11:41.626Z,100532.44
2023-01-06T02:14:12.230Z,100526.00
2023-01-06T02:16:49.350Z,100529.59
2023-01-06T02:19:39.651Z,100526.19
2023-01-06T02:22:26.696Z,100522.00
2023-01-06T02:25:22.311Z,100529.88
2023-01-06T02:28:13.868Z,100523.31
2023-01-06T02:30:56.619Z,100519.31
2023-01-06T02:33:31.338Z,100520.81
2023-01-06T02:36:13.357Z,100512.28
2023-01-06T02:38:55.436Z,100517.09
2023-01-06T02:41:33.331Z,100515.16
2023-01-06T02:44:04.780Z,100512.03
2023-01-06T02:46:55.448Z,100507.09
2023-01-06T02:49:30.612Z,100498.84
2023-01-06T02:52:02.392Z,100500.34
2023-01-06T02:54:39.217Z,100498.38
2023-01-06T02:57:14.926Z,100492.31
2023-01-06T02:59:49.420Z,100491.72
2023-01-06T03:02:19.099Z,100493.97
2023-01-06T03:04:51.719Z,100493.78
2023-01-06T03:07:22.415Z,100498.31
2023-01-06T03:09:54.176Z,100489.44
2023-01-06T03:12:29.099Z,100499.59
2023-01-06T03:14:57.398Z,100501.44
2023-01-06T03:17:25.668Z,100497.69
2023-01-06T03:19:55.223Z,100500.41
2023-01-06T03:22:24.252Z,100502.75
2023-01-06T03:24:52.956Z,100506.38
2023-01-06T03:27:25.744Z,100493.19
2023-01-06T03:29:53.716Z,100504.31
2023-01-06T03:32:27.240Z,100494.59
2023-01-06T03:35:08.808Z,100495.88
2023-01-06T03:37:48.966Z,100498.22
2023-01-06T03:40:26.616Z,100490.16
2023-01-06T03:43:13.554Z,100488.47
2023-01-06T03:45:56.328Z,100484.88
2023-01-06T03:48:34.338Z,100479.78
2023-01-06T03:51:08.876Z,100480.25
2023-01-06T03:53:43.668Z,100476.19
2023-01-06T03:56:19.909Z,100471.66
2023-01-06T03:58:52.123Z,100472.84
2023-01-06T04:01:20.629Z,100462.88
2023-01-06T04:03:49.407Z,100464.34
2023-01-06T04:06:18.289Z,100464.25
2023-01-06T04:08:46.086Z,100455.38
2023-01-06T04:11:34.272Z,100454.50
2023-01-06T04:14:01.077Z,100458.19
2023-01-06T04:16:28.753Z,100461.06
2023-01-06T04:18:56.365Z,100456.91
2023-01-06T04:21:25.269Z,100469.78
2023-01-06T04:23:52.847Z,100447.97
2023-01-06T04:26:20.514Z,100452.22
2023-01-06T04:28:48.172Z,100453.13
2023-01-06T04:31:15.703Z,100454.78
2023-01-06T04:33:43.246Z,100450.81
2023-01-06T04:36:10.887Z,100444.97
2023-01-06T04:38:39.754Z,100439.81
2023-01-06T04:41:08.043Z,100444.16
2023-01-06T04:43:35.808Z,100442.84
2023-01-06T04:46:03.404Z,100448.59
2023-01-06T04:48:31.427Z,100446.94
2023-01-06T04:51:02.796Z,100447.00
2023-01-06T04:53:30.392Z,100444.69
2023-01-06T04:56:03.443Z,100448.84
2023-01-06T04:58:31.008Z,100455.97
2023-01-06T05:01:01.091Z,100453.72
2023-01-06T05:03:28.998Z,100453.66
2023-01-06T05:05:56.659Z,100457.38
2023-01-06T05:08:24.211Z,100451.63
2023-01-06T05:10:51.779Z,100449.31
2023-01-06T05:13:20.716Z,100453.66
2023-01-06T05:15:48.247Z,100445.88
2023-01-06T05:18:15.730Z,100451.22
2023-01-06T05:20:43.272Z,100451.19
2023-01-06T05:23:13.567Z,100449.97
2023-01-06T05:25:42.262Z,100445.81
2023-01-06T05:28:10.023Z,100446.06
2023-01-06T05:30:39.119Z,100441.19
2023-01-06T05:33:07.394Z,100432.94
2023-01-06T05:35:35.032Z,100438.06
2023-01-06T05:38:02.571Z,100436.72
2023-01-06T05:40:30.771Z,100439.22
2023-01-06T05:42:58.831Z,100449.47
2023-01-06T05:45:26.602Z,100452.44
2023-01-06T05:47:55.491Z,100446.50
2023-01-06T05:50:23.101Z,100450.50
2023-01-06T05:52:50.654Z,100448.75
2023-01-06T05:55:18.465Z,100458.06
2023-01-06T05:57:46.080Z,100459.28
2023-01-06T06:00:14.421Z,100462.75
2023-01-06T06:02:42.382Z,100472.81
2023-01-06T06:05:11.668Z,100470.13
2023-01-06T06:07:39.500Z,100464.41
2023-01-06T06:10:08.607Z,100470.22
2023-01-06T06:12:36.557Z,100476.69
2023-01-06T06:15:04.618Z,100481.59
2023-01-06T06:17:32.543Z,100482.16
2023-01-06T06:20:00.284Z,100478.84
2023-01-06T06:22:29.164Z,100477.44
2023-01-06T06:24:56.706Z,100461.31
2023-01-06T06:27:24.329Z,100456.22
2023-01-06T06:29:52.007Z,100456.00
2023-01-06T06:32:20.961Z,100462.84
2023-01-06T06:34:48.573Z,100465.06
2023-01-06T06:37:16.227Z,100468.75
2023-01-06T06:39:46.222Z,100465.16
2023-01-06T06:42:13.850Z,100459.41
2023-01-06T06:44:41.448Z,100458.59
2023-01-06T06:47:09.074Z,100457.31
2023-01-06T06:49:36.745Z,100462.94
2023-01-06T06:52:04.477Z,100467.28
2023-01-06T06:54:32.067Z,100472.94
2023-01-06T06:57:00.954Z,100475.97
2023-01-06T06:59:28.544Z,100479.88
2023-01-06T07:01:56.302Z,100483.47
2023-01-06T07:04:23.980Z,100482.25
2023-01-06T07:06:51.601Z,100483.09
2023-01-06T07:09:19.381Z,100490.59
2023-01-06T07:11:46.980Z,100482.06
2023-01-06T07:14:15.888Z,100486.06
2023-01-06T07:16:43.626Z,100475.06
2023-01-06T07:19:11.261Z,100480.69
2023-01-06T07:21:39.357Z,100480.97
2023-01-06T07:24:07.306Z,100485.31
2023-01-06T07:26:34.961Z,100481.25
2023-01-06T07:29:02.669Z,100486.28
2023-01-06T07:31:31.770Z,100484.78
2023-01-06T07:33:59.405Z,100490.59
2023-01-06T07:36:26.963Z,100488.00
2023-01-06T07:38:56.646Z,100497.06
2023-01-06T07:41:24.238Z,100494.13
2023-01-06T07:43:51.793Z,100505.94
2023-01-06T07:46:19.484Z,100501.91
2023-01-06T07:48:48.698Z,100506.78
2023-01-06T07:51:18.992Z,100508.34
2023-01-06T07:53:46.704Z,100503.47
2023-01-06T07:56:14.468Z,100510.00
2023-01-06T07:58:42.065Z,100512.41
2023-01-06T08:01:10.593Z,100509.06
2023-01-06T08:03:38.195Z,100507.88
2023-01-06T08:06:12.042Z,100514.22
2023-01-06T08:08:40.654Z,100502.84
2023-01-06T08:11:09.611Z,100509.53
2023-01-06T08:13:38.433Z,100521.50
2023-01-06T08:16:07.472Z,100521.00
2023-01-06T08:18:35.188Z,100515.06
2023-01-06T08:21:03.190Z,100523.78
2023-01-06T08:23:32.314Z,100521.28
2023-01-06T08:26:06.534Z,100520.38
2023-01-06T08:28:34.483Z,100525.47
2023-01-06T08:31:02.624Z,100527.84
2023-01-06T08:33:30.234Z,100521.53
2023-01-06T08:36:03.827Z,100532.19
2023-01-06T08:38:35.037Z,100526.00
2023-01-06T08:41:04.175Z,100526.81
2023-01-06T08:43:32.483Z,100515.34
2023-01-06T08:46:00.936Z,100519.31
2023-01-06T08:48:29.518Z,100508.75
2023-01-06T08:50:58.060Z,100511.44
2023-01-06T08:53:25.594Z,100512.75
2023-01-06T08:55:54.503Z,100517.94
2023-01-06T08:58:22.100Z,100520.47
2023-01-06T09:00:49.707Z,100521.94
2023-01-06T09:03:18.726Z,100511.38
2023-01-06T09:05:53.674Z,100512.38
2023-01-06T09:08:21.406Z,100526.19
2023-01-06T09:10:50.943Z,100512.94
2023-01-06T09:13:20.342Z,100513.78
2023-01-06T09:15:48.986Z,100512.84
2023-01-06T09:18:16.854Z,100516.38
2023-01-06T09:20:44.684Z,100522.13
2023-01-06T09:23:12.329Z,100520.13
2023-01-06T09:25:40.942Z,100522.75
2023-01-06T09:28:10.353Z,100523.97
2023-01-06T09:30:39.551Z,100522.38
2023-01-06T09:33:07.278Z,100540.09
2023-01-06T09:35:34.973Z,100550.72
2023-01-06T09:38:02.532Z,100552.81
2023-01-06T09:40:38.815Z,100556.81
2023-01-06T09:43:18.337Z,100553.13
2023-01-06T09:45:51.503Z,100555.50
2023-01-06T09:48:25.457Z,100553.94
2023-01-06T09:50:56.973Z,100563.13
2023-01-06T09:53:29.500Z,100559.78
2023-01-06T09:56:04.141Z,100552.47
2023-01-06T09:58:37.478Z,100553.69
2023-01-06T10:01:12.900Z,100557.38
2023-01-06T10:03:40.571Z,100552.19
2023-01-06T10:06:32.118Z,100559.97
2023-01-06T10:09:13.693Z,100554.66
2023-01-06T10:11:53.805Z,100560.84
2023-01-06T10:14:33.382Z,100564.22
2023-01-06T10:17:22.643Z,100569.13
2023-01-06T10:20:03.115Z,100570.88
2023-01-06T10:22:41.412Z,100574.50
2023-01-06T10:25:19.596Z,100561.53
2023-01-06T10:27:51.357Z,100552.97
2023-01-06T10:30:24.827Z,100555.00
2023-01-06T10:32:55.103Z,100550.91
2023-01-06T10:35:25.662Z,100546.09
2023-01-06T10:37:55.128Z,100534.63
2023-01-06T10:40:25.976Z,100540.63
2023-01-06T10:42:56.422Z,100533.31
2023-01-06T10:45:26.571Z,100539.75
2023-01-06T10:47:56.435Z,100534.47
2023-01-06T10:50:25.749Z,100542.31
2023-01-06T10:52:53.348Z,100536.50
2023-01-06T10:55:36.409Z,100542.00
2023-01-06T10:58:12.656Z,100539.09
2023-01-06T11:00:56.679Z,100537.75
2023-01-06T11:03:35.333Z,100526.38
2023-01-06T11:06:10.537Z,100507.94
2023-01-06T11:08:39.272Z,100502.25
2023-01-06T11:11:27.318Z,100495.50
2023-01-06T11:13:57.532Z,100484.06
2023-01-06T11:16:29.072Z,100484.31
2023-01-06T11:19:01.269Z,100479.22
2023-01-06T11:21:43.359Z,100476.88
2023-01-06T11:24:19.913Z,100467.44
2023-01-06T11:26:53.015Z,100472.53
2023-01-06T11:29:29.919Z,100471.03
2023-01-06T11:32:00.165Z,100466.06
2023-01-06T11:34:32.292Z,100471.03
2023-01-06T11:37:02.228Z,100477.28
2023-01-06T11:39:36.339Z,100462.75
2023-01-06T11:42:10.579Z,100459.25
2023-01-06T11:44:40.977Z,100471.97
2023-01-06T11:47:16.072Z,100480.88
2023-01-06T11:49:50.982Z,100475.91
2023-01-06T11:52:24.812Z,100469.13
2023-01-06T11:55:17.203Z,100464.13
2023-01-06T11:57:49.429Z,100461.09
2023-01-06T12:00:33.361Z,100454.38
2023-01-06T12:03:09.677Z,100458.31
2023-01-06T12:05:48.021Z,100459.53
2023-01-06T12:08:21.031Z,100451.28
2023-01-06T12:10:54.221Z,100460.34
2023-01-06T12:13:25.234Z,100453.09
2023-01-06T12:16:01.306Z,100456.56
2023-01-06T12:18:32.258Z,100457.59
2023-01-06T12:21:02.395Z,100459.50
2023-01-06T12:23:35.028Z,100460.94
2023-01-06T12:26:05.976Z,100456.59
2023-01-06T12:28:37.034Z,100457.84
2023-01-06T12:31:14.296Z,100456.09
2023-01-06T12:33:50.524Z,100460.41
2023-01-06T12:36:30.939Z,100452.22
2023-01-06T12:39:01.787Z,100446.66
2023-01-06T12:41:36.903Z,100443.38
2023-01-06T12:44:17.568Z,100442.19
2023-01-06T12:46:54.073Z,100447.59
2023-01-06T12:49:30.647Z,100444.41
2023-01-06T12:52:04.532Z,100442.34
2023-01-06T12:54:36.519Z,100434.06
2023-01-06T12:57:21.412Z,100445.69
2023-01-06T13:00:01.659Z,100441.03
2023-01-06T13:02:48.171Z,100430.59
2023-01-06T13:05:35.523Z,100433.69
2023-01-06T13:08:15.909Z,100437.25
2023-01-06T13:10:47.228Z,100439.31
2023-01-06T13:13:43.300Z,100447.09
2023-01-06T13:16:19.338Z,100448.38
2023-01-06T13:19:00.554Z,100443.47
2023-01-06T13:21:29.587Z,100445.13
2023-01-06T13:24:12.117Z,100450.81
2023-01-06T13:26:58.546Z,100450.59
2023-01-06T13:29:39.295Z,100443.94
2023-01-06T13:32:21.442Z,100438.34
2023-01-06T13:35:12.010Z,100440.91
2023-01-06T13:37:42.603Z,100449.50
2023-01-06T13:40:14.300Z,100452.72
2023-01-06T13:42:48.625Z,100453.75
2023-01-06T13:45:21.162Z,100465.34
2023-01-06T13:47:51.179Z,100461.19
2023-01-06T13:50:21.810Z,100458.31
2023-01-06T13:52:52.334Z,100459.38
2023-01-06T13:55:30.075Z,100467.38
2023-01-06T13:57:59.938Z,100458.53
2023-01-06T14:00:29.098Z,100465.69
2023-01-06T14:03:28.045Z,100458.88
2023-01-06T14:05:57.730Z,100462.75
2023-01-06T14:08:29.963Z,100455.28
2023-01-06T14:11:02.894Z,100460.88
2023-01-06T14:13:34.446Z,100451.53
2023-01-06T14:16:06.364Z,100465.84
2023-01-06T14:18:38.674Z,100463.22
2023-01-06T14:21:15.794Z,100465.72
2023-01-06T14:23:59.724Z,100470.59
2023-01-06T14:26:50.271Z,100458.19
2023-01-06T14:29:57.674Z,100465.78
2023-01-06T14:33:05.316Z,100464.25
2023-01-06T14:35:38.221Z,100465.97
2023-01-06T14:38:13.401Z,100459.63
2023-01-06T14:40:50.675Z,100469.19
2023-01-06T14:43:31.826Z,100472.59
2023-01-06T14:46:07.038Z,100468.69
2023-01-06T14:48:44.441Z,100469.13
2023-01-06T14:51:17.449Z,100466.06
2023-01-06T14:53:50.276Z,100461.78
2023-01-06T14:56:19.844Z,100467.38
2023-01-06T14:58:48.818Z,100463.44
2023-01-06T15:01:23.703Z,100458.22
2023-01-06T15:03:59.659Z,100458.94
2023-01-06T15:06:29.186Z,100462.25
2023-01-06T15:09:11.948Z,100470.50
2023-01-06T15:11:42.565Z,100476.81
2023-01-06T15:17:19.900Z,100473.78
2023-01-06T15:19:48.880Z,100469.19
2023-01-06T15:22:22.089Z,100470.69
2023-01-06T15:24:52.391Z,100470.38
2023-01-06T15:27:23.371Z,100474.19
2023-01-06T15:29:52.136Z,100476.53
2023-01-06T15:32:21.878Z,100471.91
2023-01-06T15:34:50.985Z,100474.69
2023-01-06T15:37:21.335Z,100481.97
2023-01-06T15:39:50.102Z,100479.88
2023-01-06T15:42:22.005Z,100481.91
2023-01-06T15:44:57.882Z,100481.66
2023-01-06T15:47:32.591Z,100485.63
2023-01-06T15:50:03.422Z,100491.00
2023-01-06T15:52:33.901Z,100480.31
2023-01-06T15:55:04.675Z,100482.81
2023-01-06T15:57:37.779Z,100488.38
2023-01-06T16:00:08.999Z,100479.88
2023-01-06T16:02:38.118Z,100483.50
2023-01-06T16:05:08.754Z,100491.97
2023-01-06T16:07:40.208Z,100496.81
2023-01-06T16:10:30.289Z,100509.16
2023-01-06T16:13:22.250Z,100506.47
2023-01-06T16:15:52.203Z,100512.03
2023-01-06T16:18:29.879Z,100507.00
2023-01-06T16:21:00.063Z,100513.56
2023-01-06T16:23:32.697Z,100511.84
2023-01-06T16:26:06.336Z,100508.47
2023-01-06T16:28:34.447Z,100510.97
2023-01-06T16:31:07.749Z,100510.88
2023-01-06T16:33:40.245Z,100513.56
2023-01-06T16:36:16.640Z,100514.50
2023-01-06T16:38:44.750Z,100512.09
2023-01-06T16:41:17.816Z,100513.69
2023-01-06T16:43:46.587Z,100504.69
2023-01-06T16:46:21.070Z,100506.63
2023-01-06T16:48:52.973Z,100510.84
2023-01-06T16:51:20.624Z,100510.50
2023-01-06T16:53:49.326Z,100509.22
2023-01-06T16:56:19.866Z,100515.63
2023-01-06T16:58:47.550Z,100520.78
2023-01-06T17:01:17.458Z,100520.25
2023-01-06T17:03:47.261Z,100512.72
2023-01-06T17:06:20.328Z,100518.69
2023-01-06T17:08:48.580Z,100510.00
2023-01-06T17:11:18.898Z,100504.63
2023-01-06T17:13:53.194Z,100507.16
2023-01-06T17:16:27.066Z,100504.56
2023-01-06T17:18:56.871Z,100504.75
2023-01-06T17:21:29.531Z,100498.94
2023-01-06T17:23:59.988Z,100501.53
2023-01-06T17:26:28.090Z,100497.09
2023-01-06T17:28:58.224Z,100511.00
2023-01-06T17:31:35.024Z,100511.00
2023-01-06T17:34:11.824Z,100517.19
2023-01-06T17:36:42.734Z,100518.50
2023-01-06T17:39:18.785Z,100514.75
2023-01-06T17:41:46.572Z,100519.06
2023-01-06T17:44:17.468Z,100526.28
2023-01-06T17:46:45.780Z,100524.72
2023-01-06T17:49:32.163Z,100530.19
2023-01-06T17:52:04.803Z,100527.94
2023-01-06T17:54:49.863Z,100529.41
2023-01-06T17:57:19.677Z,100531.00
2023-01-06T17:59:48.826Z,100540.34
2023-01-06T18:02:35.650Z,100531.34
2023-01-06T18:05:33.241Z,100542.72
2023-01-06T18:08:12.873Z,100533.94
2023-01-06T18:10:43.931Z,100536.72
2023-01-06T18:13:16.671Z,100540.78
2023-01-06T18:15:46.447Z,100548.00
2023-01-06T18:18:19.936Z,100543.03
2023-01-06T18:20:48.444Z,100554.34
2023-01-06T18:23:22.645Z,100547.75
2023-01-06T18:25:53.490Z,100550.53
2023-01-06T18:28:21.179Z,100547.00
2023-01-06T18:30:53.174Z,100555.34
2023-01-06T18:33:21.513Z,100555.41
2023-01-06T18:35:52.639Z,100555.91
2023-01-06T18:38:21.753Z,100561.53
2023-01-06T18:40:49.615Z,100556.50
2023-01-06T18:43:26.100Z,100554.41
2023-01-06T18:45:56.602Z,100557.53
2023-01-06T18:48:30.661Z,100546.88
2023-01-06T18:51:00.396Z,100552.16
2023-01-06T18:53:31.261Z,100549.91
2023-01-06T18:56:00.552Z,100555.13
2023-01-06T18:58:41.318Z,100549.13
2023-01-06T19:01:20.558Z,100552.84
2023-01-06T19:03:59.280Z,100556.63
2023-01-06T19:06:35.694Z,100561.06
2023-01-06T19:09:23.280Z,100559.34
2023-01-06T19:12:02.314Z,100560.53
2023-01-06T19:14:33.669Z,100557.97
2023-01-06T19:17:01.285Z,100564.78
2023-01-06T19:19:34.819Z,100563.78
2023-01-06T19:22:10.684Z,100558.59
2023-01-06T19:24:53.129Z,100554.44
2023-01-06T19:27:42.039Z,100561.09
2023-01-06T19:30:38.376Z,100566.63
2023-01-06T19:33:36.666Z,100563.88
2023-01-06T19:36:38.360Z,100558.97
2023-01-06T19:39:19.673Z,100563.13
2023-01-06T19:41:51.451Z,100557.84
2023-01-06T19:44:22.552Z,100552.47
2023-01-06T19:46:50.279Z,100555.63
2023-01-06T19:49:20.161Z,100551.56
2023-01-06T19:51:49.957Z,100552.13
2023-01-06T19:54:24.969Z,100553.97
2023-01-06T19:56:54.999Z,100555.81
2023-01-06T19:59:26.495Z,100548.97
2023-01-06T20:01:59.957Z,100544.63
2023-01-06T20:04:28.687Z,100528.50
2023-01-06T20:06:56.260Z,100542.94
2023-01-06T20:09:23.814Z,100550.91
2023-01-06T20:11:52.376Z,100559.78
2023-01-06T20:14:24.497Z,100550.72
2023-01-06T20:16:52.255Z,100565.78
2023-01-06T20:19:21.401Z,100556.53
2023-01-06T20:21:49.010Z,100553.78
2023-01-06T20:24:16.719Z,100549.69
2023-01-06T20:26:45.347Z,100543.25
2023-01-06T20:29:12.904Z,100554.16
2023-01-06T20:31:41.897Z,100547.91
2023-01-06T20:34:09.600Z,100545.22
2023-01-06T20:36:37.157Z,100536.00
2023-01-06T20:39:04.820Z,100549.88
2023-01-06T20:41:32.404Z,100534.78
2023-01-06T20:44:00.981Z,100538.28
2023-01-06T20:46:28.583Z,100531.75
2023-01-06T20:48:57.512Z,100533.88
2023-01-06T20:51:26.082Z,100538.16
2023-01-06T20:53:53.619Z,100528.06
2023-01-06T20:56:21.439Z,100537.66
2023-01-06T20:58:49.041Z,100547.03
2023-01-06T21:01:16.698Z,100545.72
2023-01-06T21:03:44.384Z,100542.28
2023-01-06T21:06:13.280Z,100544.97
2023-01-06T21:08:40.778Z,100543.78
2023-01-06T21:11:08.333Z,100530.91
2023-01-06T21:13:35.833Z,100529.81
2023-01-06T21:16:03.454Z,100531.19
2023-01-06T21:18:31.087Z,100536.84
2023-01-06T21:20:58.775Z,100539.88
2023-01-06T21:23:27.789Z,100535.91
2023-01-06T21:25:55.400Z,100539.88
2023-01-06T21:28:22.976Z,100543.03
2023-01-06T21:30:50.590Z,100538.50
2023-01-06T21:33:20.424Z,100535.94
2023-01-06T21:35:48.987Z,100535.47
2023-01-06T21:38:17.022Z,100532.88
2023-01-06T21:40:46.002Z,100526.59
2023-01-06T21:43:12.672Z,100543.22
2023-01-06T21:45:41.596Z,100540.31
2023-01-06T21:48:09.798Z,100545.88
2023-01-06T21:50:40.212Z,100539.06
2023-01-06T21:53:08.411Z,100539.34
2023-01-06T21:55:40.075Z,100540.81
2023-01-06T21:58:09.076Z,100547.00
2023-01-06T22:00:36.651Z,100546.63
2023-01-06T22:03:05.581Z,100546.09
2023-01-06T22:05:33.473Z,100543.97
2023-01-06T22:08:01.308Z,100546.28
2023-01-06T22:10:29.025Z,100542.28
2023-01-06T22:12:59.100Z,100544.25
2023-01-06T22:15:29.406Z,100537.94
2023-01-06T22:17:59.442Z,100545.00
2023-01-06T22:20:27.969Z,100554.03
2023-01-06T22:22:55.803Z,100550.25
2023-01-06T22:25:23.444Z,100547.38
2023-01-06T22:27:50.999Z,100542.94
2023-01-06T22:30:18.748Z,100544.34
2023-01-06T22:32:48.993Z,100542.97
2023-01-06T22:35:17.687Z,100552.50
2023-01-06T22:37:45.561Z,100549.06
2023-01-06T22:40:14.522Z,100538.59
2023-01-06T22:42:42.196Z,100546.91
2023-01-06T22:45:10.506Z,100551.75
2023-01-06T22:47:38.196Z,100552.22
2023-01-06T22:50:08.568Z,100547.13
2023-01-06T22:52:36.126Z,100551.66
2023-01-06T22:55:04.177Z,100547.50
2023-01-06T22:57:31.717Z,100547.56
2023-01-06T23:00:00.130Z,100548.22
2023-01-06T23:02:28.008Z,100548.59
2023-01-06T23:04:55.759Z,100556.47
2023-01-06T23:07:24.860Z,100553.50
2023-01-06T23:09:54.494Z,100551.84
2023-01-06T23:12:22.217Z,100561.63
2023-01-06T23:14:50.192Z,100574.78
2023-01-06T23:17:18.851Z,100566.53
2023-01-06T23:19:49.589Z,100567.84
2023-01-06T23:22:17.774Z,100569.03
2023-01-06T23:24:47.707Z,100564.13
2023-01-06T23:27:16.535Z,100566.72
2023-01-06T23:29:46.229Z,100564.25
2023-01-06T23:32:14.060Z,100561.56
2023-01-06T23:34:41.907Z,100562.66
2023-01-06T23:37:09.867Z,100563.09
2023-01-06T23:39:40.411Z,100563.59
2023-01-06T23:42:09.804Z,100550.63
2023-01-06T23:44:37.437Z,100552.88
2023-01-06T23:47:09.102Z,100552.22
2023-01-06T23:49:36.697Z,100545.09
2023-01-06T23:52:04.667Z,100543.78
2023-01-06T23:54:33.547Z,100538.69
2023-01-06T23:57:01.096Z,100545.47
2023-01-06T23:59:30.230Z,100537.59
